createdAt,value
2023-10-04T00:00:35.312Z,101241.38
2023-10-04T00:03:03.143Z,101249.81
2023-10-04T00:05:31.826Z,101236.94
2023-10-04T00:08:00.428Z,101243.03
2023-10-04T00:10:28.137Z,101248.00
2023-10-04T00:12:55.895Z,101258.09
2023-10-04T00:15:26.634Z,101254.66
2023-10-04T00:17:54.994Z,101247.50
2023-10-04T00:20:23.912Z,101255.19
2023-10-04T00:22:51.885Z,101252.78
2023-10-04T00:25:23.222Z,101253.69
2023-10-04T00:27:53.694Z,101257.75
2023-10-04T00:30:21.232Z,101268.63
2023-10-04T00:32:49.226Z,101273.25
2023-10-04T00:35:20.903Z,101276.28
2023-10-04T00:37:57.549Z,101269.56
2023-10-04T00:40:33.760Z,101271.06
2023-10-04T00:43:04.009Z,101271.06
2023-10-04T00:45:34.150Z,101276.53
2023-10-04T00:48:09.688Z,101267.84
2023-10-04T00:50:38.006Z,101275.53
2023-10-04T00:53:10.776Z,101280.94
2023-10-04T00:55:45.013Z,101261.88
2023-10-04T00:58:18.358Z,101281.28
2023-10-04T01:00:47.571Z,101263.44
2023-10-04T01:03:25.834Z,101274.31
2023-10-04T01:05:55.832Z,101268.94
2023-10-04T01:08:24.728Z,101263.78
2023-10-04T01:10:55.840Z,101280.94
2023-10-04T01:13:23.962Z,101270.63
2023-10-04T01:15:56.403Z,101272.75
2023-10-04T01:18:25.078Z,101277.38
2023-10-04T01:20:53.046Z,101278.16
2023-10-04T01:23:20.700Z,101269.78
2023-10-04T01:25:48.994Z,101281.16
2023-10-04T01:28:29.996Z,101269.69
2023-10-04T01:31:02.045Z,101276.22
2023-10-04T01:33:30.570Z,101270.41
2023-10-04T01:36:01.119Z,101272.53
2023-10-04T01:38:28.979Z,101281.16
2023-10-04T01:40:57.679Z,101267.53
2023-10-04T01:43:27.862Z,101278.50
2023-10-04T01:45:59.741Z,101282.19
2023-10-04T01:48:32.583Z,101274.19
2023-10-04T01:51:07.674Z,101270.34
2023-10-04T01:53:36.611Z,101276.69
2023-10-04T01:56:07.057Z,101273.53
2023-10-04T01:58:34.909Z,101269.00
2023-10-04T02:01:02.563Z,101281.34
2023-10-04T02:03:31.502Z,101273.34
2023-10-04T02:06:01.320Z,101271.34
2023-10-04T02:08:29.716Z,101272.50
2023-10-04T02:10:59.251Z,101267.03
2023-10-04T02:13:28.574Z,101259.22
2023-10-04T02:15:56.218Z,101278.25
2023-10-04T02:18:24.030Z,101264.91
2023-10-04T02:20:54.515Z,101271.28
2023-10-04T02:23:22.878Z,101270.63
2023-10-04T02:25:50.752Z,101263.47
2023-10-04T02:28:25.137Z,101275.16
2023-10-04T02:30:56.165Z,101285.41
2023-10-04T02:33:33.094Z,101279.69
2023-10-04T02:36:08.084Z,101272.75
2023-10-04T02:38:36.731Z,101274.00
2023-10-04T02:41:08.094Z,101273.25
2023-10-04T02:43:41.272Z,101281.47
2023-10-04T02:46:11.587Z,101282.41
2023-10-04T02:48:39.176Z,101279.06
2023-10-04T02:51:06.870Z,101276.66
2023-10-04T02:53:35.558Z,101278.00
2023-10-04T02:56:08.335Z,101269.66
2023-10-04T02:58:42.993Z,101277.56
2023-10-04T03:01:19.209Z,101274.38
2023-10-04T03:03:47.652Z,101276.47
2023-10-04T03:06:15.539Z,101280.38
2023-10-04T03:08:43.493Z,101276.19
2023-10-04T03:11:13.360Z,101278.59
2023-10-04T03:13:41.633Z,101281.66
2023-10-04T03:16:11.095Z,101267.00
2023-10-04T03:18:41.217Z,101280.44
2023-10-04T03:21:12.473Z,101285.84
2023-10-04T03:23:44.371Z,101286.41
2023-10-04T03:26:16.314Z,101271.94
2023-10-04T03:28:47.060Z,101277.81
2023-10-04T03:31:16.484Z,101292.47
2023-10-04T03:33:50.394Z,101296.03
2023-10-04T03:36:22.666Z,101283.00
2023-10-04T03:38:59.874Z,101291.31
2023-10-04T03:41:29.260Z,101300.03
2023-10-04T03:44:04.426Z,101298.59
2023-10-04T03:46:32.680Z,101292.34
2023-10-04T03:49:04.528Z,101284.06
2023-10-04T03:51:32.838Z,101283.28
2023-10-04T03:54:08.662Z,101296.47
2023-10-04T03:56:42.476Z,101288.63
2023-10-04T03:59:12.248Z,101297.75
2023-10-04T04:01:40.211Z,101289.13
2023-10-04T04:04:15.955Z,101298.97
2023-10-04T04:06:45.121Z,101303.94
2023-10-04T04:09:14.423Z,101300.34
2023-10-04T04:11:41.945Z,101300.59
2023-10-04T04:14:09.693Z,101306.28
2023-10-04T04:16:38.946Z,101311.19
2023-10-04T04:19:09.675Z,101324.47
2023-10-04T04:21:37.465Z,101327.00
2023-10-04T04:24:11.050Z,101324.16
2023-10-04T04:26:40.606Z,101325.78
2023-10-04T04:29:11.070Z,101326.56
2023-10-04T04:31:42.049Z,101329.31
2023-10-04T04:34:14.639Z,101323.00
2023-10-04T04:36:43.477Z,101332.19
2023-10-04T04:39:17.780Z,101330.66
2023-10-04T04:41:47.575Z,101335.09
2023-10-04T04:44:21.793Z,101340.13
2023-10-04T04:46:50.174Z,101340.56
2023-10-04T04:49:18.458Z,101337.88
2023-10-04T04:51:46.385Z,101343.59
2023-10-04T04:54:13.940Z,101342.94
2023-10-04T04:56:41.682Z,101350.06
2023-10-04T04:59:12.974Z,101346.56
2023-10-04T05:01:42.315Z,101358.06
2023-10-04T05:04:10.742Z,101350.69
2023-10-04T05:06:39.934Z,101351.09
2023-10-04T05:09:11.504Z,101352.59
2023-10-04T05:11:39.939Z,101365.56
2023-10-04T05:14:08.236Z,101370.94
2023-10-04T05:16:36.244Z,101365.50
2023-10-04T05:19:12.015Z,101380.06
2023-10-04T05:21:39.677Z,101376.66
2023-10-04T05:24:08.023Z,101368.56
2023-10-04T05:26:38.329Z,101378.53
2023-10-04T05:29:06.029Z,101384.00
2023-10-04T05:31:33.816Z,101381.69
2023-10-04T05:34:05.093Z,101381.78
2023-10-04T05:36:35.649Z,101390.44
2023-10-04T05:39:05.218Z,101392.47
2023-10-04T05:41:33.112Z,101409.78
2023-10-04T05:44:00.809Z,101405.38
2023-10-04T05:46:28.890Z,101406.00
2023-10-04T05:49:04.860Z,101417.84
2023-10-04T05:51:33.189Z,101417.22
2023-10-04T05:54:00.546Z,101438.56
2023-10-04T05:56:28.622Z,101424.41
2023-10-04T05:59:15.291Z,101436.44
2023-10-04T06:01:43.243Z,101451.84
2023-10-04T06:04:12.338Z,101451.63
2023-10-04T06:06:41.702Z,101460.50
2023-10-04T06:09:10.865Z,101465.16
2023-10-04T06:11:38.123Z,101460.94
2023-10-04T06:14:05.343Z,101469.16
2023-10-04T06:16:32.661Z,101469.38
2023-10-04T06:19:00.105Z,101475.06
2023-10-04T06:21:28.198Z,101476.88
2023-10-04T06:23:55.454Z,101479.41
2023-10-04T06:26:23.209Z,101487.88
2023-10-04T06:28:51.438Z,101485.00
2023-10-04T06:31:19.091Z,101488.59
2023-10-04T06:33:46.437Z,101495.34
2023-10-04T06:36:14.902Z,101502.53
2023-10-04T06:38:42.368Z,101501.31
2023-10-04T06:41:09.758Z,101494.75
2023-10-04T06:43:37.336Z,101505.69
2023-10-04T06:46:05.040Z,101510.34
2023-10-04T06:48:33.539Z,101505.47
2023-10-04T06:51:02.059Z,101509.78
2023-10-04T06:53:29.980Z,101515.41
2023-10-04T06:55:59.723Z,101520.13
2023-10-04T06:58:28.362Z,101521.41
2023-10-04T07:00:57.995Z,101523.72
2023-10-04T07:03:27.845Z,101529.97
2023-10-04T07:05:55.410Z,101539.75
2023-10-04T07:08:22.735Z,101539.25
2023-10-04T07:10:50.973Z,101541.47
2023-10-04T07:13:18.160Z,101532.91
2023-10-04T07:15:46.058Z,101542.19
2023-10-04T07:18:14.459Z,101542.13
2023-10-04T07:20:42.600Z,101544.09
2023-10-04T07:23:11.662Z,101541.00
2023-10-04T07:25:40.023Z,101538.19
2023-10-04T07:28:11.099Z,101546.94
2023-10-04T07:30:39.808Z,101549.97
2023-10-04T07:33:08.551Z,101555.91
2023-10-04T07:35:36.429Z,101551.28
2023-10-04T07:38:07.415Z,101551.91
2023-10-04T07:40:36.662Z,101549.78
2023-10-04T07:43:04.655Z,101565.31
2023-10-04T07:45:33.820Z,101571.03
2023-10-04T07:48:03.494Z,101564.47
2023-10-04T07:50:33.723Z,101577.88
2023-10-04T07:53:06.218Z,101581.50
2023-10-04T07:55:35.163Z,101577.09
2023-10-04T07:58:06.958Z,101582.38
2023-10-04T08:00:39.845Z,101587.03
2023-10-04T08:03:09.084Z,101583.03
2023-10-04T08:05:37.445Z,101584.91
2023-10-04T08:08:07.463Z,101593.69
2023-10-04T08:10:37.144Z,101591.78
2023-10-04T08:13:06.390Z,101595.47
2023-10-04T08:15:36.846Z,101599.09
2023-10-04T08:18:05.626Z,101598.34
2023-10-04T08:20:35.117Z,101589.97
2023-10-04T08:23:06.829Z,101593.50
2023-10-04T08:25:35.816Z,101598.00
2023-10-04T08:28:04.298Z,101592.31
2023-10-04T08:30:32.456Z,101588.75
2023-10-04T08:33:00.957Z,101586.38
2023-10-04T08:35:29.878Z,101593.41
2023-10-04T08:38:00.945Z,101590.34
2023-10-04T08:40:29.362Z,101585.06
2023-10-04T08:42:56.900Z,101597.00
2023-10-04T08:45:25.530Z,101594.59
2023-10-04T08:47:56.472Z,101594.06
2023-10-04T08:50:30.562Z,101598.00
2023-10-04T08:53:04.360Z,101592.88
2023-10-04T08:55:37.683Z,101596.72
2023-10-04T08:58:05.875Z,101596.47
2023-10-04T09:00:36.162Z,101601.19
2023-10-04T09:03:08.584Z,101603.19
2023-10-04T09:05:37.418Z,101602.88
2023-10-04T09:08:05.384Z,101594.22
2023-10-04T09:10:34.590Z,101593.56
2023-10-04T09:13:05.141Z,101585.84
2023-10-04T09:15:32.726Z,101585.34
2023-10-04T09:18:04.218Z,101582.69
2023-10-04T09:20:33.264Z,101577.56
2023-10-04T09:23:01.144Z,101582.28
2023-10-04T09:25:38.093Z,101571.19
2023-10-04T09:28:05.866Z,101565.19
2023-10-04T09:30:35.362Z,101562.44
2023-10-04T09:33:22.831Z,101567.09
2023-10-04T09:35:50.344Z,101556.69
2023-10-04T09:38:26.291Z,101561.75
2023-10-04T09:40:58.050Z,101558.44
2023-10-04T09:43:33.771Z,101553.94
2023-10-04T09:46:01.201Z,101560.81
2023-10-04T09:48:35.447Z,101563.75
2023-10-04T09:51:05.775Z,101564.84
2023-10-04T09:53:33.283Z,101559.03
2023-10-04T09:56:02.637Z,101558.94
2023-10-04T09:58:31.548Z,101562.06
2023-10-04T10:01:04.967Z,101563.75
2023-10-04T10:03:37.556Z,101567.56
2023-10-04T10:06:06.015Z,101559.78
2023-10-04T10:08:35.303Z,101564.59
2023-10-04T10:11:03.328Z,101561.38
2023-10-04T10:13:31.323Z,101561.84
2023-10-04T10:15:58.887Z,101559.06
2023-10-04T10:18:26.278Z,101560.69
2023-10-04T10:20:54.953Z,101566.19
2023-10-04T10:23:22.274Z,101562.19
2023-10-04T10:26:08.187Z,101559.53
2023-10-04T10:28:35.407Z,101553.69
2023-10-04T10:31:06.490Z,101562.00
2023-10-04T10:33:34.192Z,101561.16
2023-10-04T10:36:04.438Z,101562.00
2023-10-04T10:38:40.796Z,101555.50
2023-10-04T10:41:09.964Z,101558.06
2023-10-04T10:44:09.842Z,101568.16
2023-10-04T10:46:59.279Z,101566.47
2023-10-04T10:49:42.118Z,101565.34
2023-10-04T10:52:10.855Z,101566.16
2023-10-04T10:54:38.014Z,101560.25
2023-10-04T10:57:06.933Z,101557.72
2023-10-04T10:59:35.088Z,101563.31
2023-10-04T11:02:05.997Z,101559.78
2023-10-04T11:04:33.572Z,101563.00
2023-10-04T11:07:00.864Z,101564.97
2023-10-04T11:09:40.957Z,101564.78
2023-10-04T11:12:11.792Z,101560.69
2023-10-04T11:14:38.990Z,101559.47
2023-10-04T11:17:06.360Z,101560.44
2023-10-04T11:19:35.429Z,101554.41
2023-10-04T11:22:06.349Z,101554.16
2023-10-04T11:24:38.223Z,101552.28
2023-10-04T11:27:05.643Z,101558.72
2023-10-04T11:29:34.619Z,101557.41
2023-10-04T11:32:02.387Z,101543.78
2023-10-04T11:34:35.434Z,101538.81
2023-10-04T11:37:03.731Z,101544.00
2023-10-04T11:39:35.561Z,101533.44
2023-10-04T11:42:16.089Z,101530.19
2023-10-04T11:44:44.098Z,101532.75
2023-10-04T11:47:11.619Z,101535.97
2023-10-04T11:49:42.323Z,101528.13
2023-10-04T11:52:11.265Z,101524.19
2023-10-04T11:54:39.098Z,101529.09
2023-10-04T11:57:07.578Z,101513.41
2023-10-04T11:59:37.075Z,101514.25
2023-10-04T12:02:06.466Z,101503.81
2023-10-04T12:04:36.044Z,101498.53
2023-10-04T12:07:05.543Z,101490.47
2023-10-04T12:09:35.943Z,101486.84
2023-10-04T12:12:06.374Z,101484.59
2023-10-04T12:14:34.544Z,101480.88
2023-10-04T12:17:11.252Z,101477.13
2023-10-04T12:19:40.130Z,101468.88
2023-10-04T12:22:12.840Z,101476.31
2023-10-04T12:24:41.245Z,101484.72
2023-10-04T12:27:16.672Z,101488.63
2023-10-04T12:32:18.326Z,101486.69
2023-10-04T12:34:47.265Z,101483.56
2023-10-04T12:37:17.892Z,101481.56
2023-10-04T12:39:45.151Z,101481.56
2023-10-04T12:42:12.619Z,101479.91
2023-10-04T12:44:43.387Z,101471.22
2023-10-04T12:47:11.209Z,101478.91
2023-10-04T12:49:38.527Z,101479.94
2023-10-04T12:52:10.347Z,101484.66
2023-10-04T12:54:41.459Z,101483.00
2023-10-04T12:57:08.706Z,101490.84
2023-10-04T12:59:36.045Z,101483.88
2023-10-04T13:02:04.931Z,101482.50
2023-10-04T13:04:32.682Z,101469.03
2023-10-04T13:07:02.981Z,101468.78
2023-10-04T13:09:44.407Z,101466.88
2023-10-04T13:12:19.976Z,101465.03
2023-10-04T13:14:47.206Z,101467.13
2023-10-04T13:17:14.554Z,101459.28
2023-10-04T13:19:43.364Z,101460.38
2023-10-04T13:22:11.572Z,101461.66
2023-10-04T13:24:39.458Z,101460.53
2023-10-04T13:27:06.866Z,101459.03
2023-10-04T13:29:36.748Z,101456.22
2023-10-04T13:32:09.044Z,101449.75
2023-10-04T13:34:36.996Z,101453.69
2023-10-04T13:37:04.240Z,101453.56
2023-10-04T13:39:35.788Z,101453.41
2023-10-04T13:42:17.943Z,101450.88
2023-10-04T13:44:53.371Z,101453.97
2023-10-04T13:47:21.590Z,101453.69
2023-10-04T13:49:50.342Z,101467.25
2023-10-04T13:52:18.586Z,101465.47
2023-10-04T13:54:54.768Z,101461.25
2023-10-04T13:57:24.508Z,101464.59
2023-10-04T13:59:52.074Z,101466.97
2023-10-04T14:02:20.777Z,101478.03
2023-10-04T14:04:48.401Z,101476.06
2023-10-04T14:07:17.403Z,101475.50
2023-10-04T14:09:44.946Z,101477.19
2023-10-04T14:12:12.337Z,101474.22
2023-10-04T14:14:39.622Z,101473.09
2023-10-04T14:17:09.710Z,101470.16
2023-10-04T14:19:39.620Z,101472.97
2023-10-04T14:22:09.788Z,101472.41
2023-10-04T14:24:37.560Z,101475.75
2023-10-04T14:27:07.200Z,101483.31
2023-10-04T14:29:34.455Z,101471.81
2023-10-04T14:32:02.083Z,101471.50
2023-10-04T14:34:30.011Z,101466.44
2023-10-04T14:36:58.226Z,101464.22
2023-10-04T14:39:25.824Z,101472.19
2023-10-04T14:41:54.348Z,101468.66
2023-10-04T14:44:23.782Z,101466.41
2023-10-04T14:46:51.966Z,101463.81
2023-10-04T14:49:20.385Z,101472.47
2023-10-04T14:51:47.698Z,101476.09
2023-10-04T14:54:15.204Z,101484.19
2023-10-04T14:56:43.344Z,101479.72
2023-10-04T14:59:10.556Z,101481.91
2023-10-04T15:01:38.796Z,101492.94
2023-10-04T15:04:06.394Z,101491.66
2023-10-04T15:06:33.721Z,101494.22
2023-10-04T15:09:01.109Z,101492.03
2023-10-04T15:11:30.607Z,101487.22
2023-10-04T15:13:59.364Z,101484.00
2023-10-04T15:16:26.995Z,101496.47
2023-10-04T15:18:54.868Z,101483.31
2023-10-04T15:21:22.199Z,101480.25
2023-10-04T15:23:50.141Z,101478.16
2023-10-04T15:26:18.581Z,101479.53
2023-10-04T15:28:47.249Z,101480.25
2023-10-04T15:31:15.135Z,101480.75
2023-10-04T15:33:43.344Z,101484.03
2023-10-04T15:36:11.732Z,101492.47
2023-10-04T15:38:39.069Z,101497.72
2023-10-04T15:41:06.339Z,101498.03
2023-10-04T15:43:33.497Z,101493.75
2023-10-04T15:46:00.764Z,101489.22
2023-10-04T15:48:28.033Z,101499.97
2023-10-04T15:50:55.205Z,101498.41
2023-10-04T15:53:22.394Z,101497.31
2023-10-04T15:55:49.490Z,101497.84
2023-10-04T15:58:16.732Z,101507.09
2023-10-04T16:00:43.902Z,101503.47
2023-10-04T16:03:11.345Z,101506.28
2023-10-04T16:05:38.580Z,101506.75
2023-10-04T16:08:06.438Z,101512.06
2023-10-04T16:10:33.940Z,101507.25
2023-10-04T16:13:02.858Z,101504.47
2023-10-04T16:15:31.968Z,101507.44
2023-10-04T16:17:59.296Z,101515.00
2023-10-04T16:20:26.788Z,101510.53
2023-10-04T16:22:58.813Z,101526.06
2023-10-04T16:25:27.656Z,101514.22
2023-10-04T16:27:55.334Z,101517.69
2023-10-04T16:30:22.827Z,101522.19
2023-10-04T16:32:50.422Z,101523.13
2023-10-04T16:35:20.844Z,101515.91
2023-10-04T16:37:52.255Z,101534.28
2023-10-04T16:40:21.034Z,101527.03
2023-10-04T16:42:51.431Z,101527.03
2023-10-04T16:45:21.524Z,101536.44
2023-10-04T16:47:49.454Z,101535.47
2023-10-04T16:50:20.973Z,101540.06
2023-10-04T16:52:49.509Z,101540.06
2023-10-04T16:55:16.984Z,101538.16
2023-10-04T16:57:48.521Z,101543.72
2023-10-04T17:00:17.350Z,101541.78
2023-10-04T17:02:44.941Z,101530.47
2023-10-04T17:05:12.497Z,101534.59
2023-10-04T17:07:41.269Z,101529.97
2023-10-04T17:10:09.867Z,101528.88
2023-10-04T17:12:37.528Z,101521.25
2023-10-04T17:15:05.451Z,101525.84
2023-10-04T17:17:33.335Z,101529.47
2023-10-04T17:20:01.030Z,101525.06
2023-10-04T17:25:19.304Z,101515.56
2023-10-04T17:27:47.695Z,101523.25
2023-10-04T17:30:18.853Z,101522.56
2023-10-04T17:32:47.157Z,101520.84
2023-10-04T17:35:15.553Z,101525.41
2023-10-04T17:37:43.558Z,101533.38
2023-10-04T17:40:11.859Z,101532.41
2023-10-04T17:42:39.320Z,101533.47
2023-10-04T17:45:07.184Z,101534.59
2023-10-04T17:47:34.589Z,101535.53
2023-10-04T17:50:02.123Z,101531.19
2023-10-04T17:52:29.875Z,101541.56
2023-10-04T17:54:58.634Z,101543.00
2023-10-04T17:57:27.505Z,101547.47
2023-10-04T17:59:54.897Z,101541.22
2023-10-04T18:02:23.289Z,101545.19
2023-10-04T18:04:51.963Z,101550.50
2023-10-04T18:07:20.025Z,101563.75
2023-10-04T18:09:50.310Z,101564.81
2023-10-04T18:12:18.513Z,101563.84
2023-10-04T18:14:46.487Z,101571.19
2023-10-04T18:17:14.005Z,101569.03
2023-10-04T18:19:42.554Z,101572.41
2023-10-04T18:22:13.239Z,101569.50
2023-10-04T18:25:07.162Z,101587.56
2023-10-04T18:27:34.838Z,101588.03
2023-10-04T18:30:07.366Z,101586.38
2023-10-04T18:32:34.909Z,101594.09
2023-10-04T18:35:02.184Z,101586.38
2023-10-04T18:37:30.271Z,101595.75
2023-10-04T18:40:00.502Z,101596.25
2023-10-04T18:42:31.320Z,101601.91
2023-10-04T18:45:05.780Z,101601.28
2023-10-04T18:47:33.841Z,101597.69
2023-10-04T18:50:05.052Z,101598.88
2023-10-04T18:52:35.117Z,101588.78
2023-10-04T18:55:07.887Z,101595.97
2023-10-04T18:57:39.582Z,101592.63
2023-10-04T19:00:08.921Z,101599.38
2023-10-04T19:02:37.398Z,101600.84
2023-10-04T19:05:11.604Z,101595.28
2023-10-04T19:07:42.150Z,101603.22
2023-10-04T19:10:09.960Z,101600.69
2023-10-04T19:12:37.161Z,101600.69
2023-10-04T19:15:05.859Z,101601.53
2023-10-04T19:17:33.671Z,101609.97
2023-10-04T19:20:00.911Z,101607.06
2023-10-04T19:22:32.918Z,101608.03
2023-10-04T19:25:00.865Z,101601.91
2023-10-04T19:27:28.438Z,101593.56
2023-10-04T19:29:58.655Z,101598.16
2023-10-04T19:32:26.943Z,101599.50
2023-10-04T19:34:54.333Z,101599.84
2023-10-04T19:37:25.338Z,101605.75
2023-10-04T19:39:53.899Z,101602.00
2023-10-04T19:42:21.194Z,101613.91
2023-10-04T19:44:55.740Z,101610.41
2023-10-04T19:47:24.812Z,101615.97
2023-10-04T19:49:52.001Z,101614.78
2023-10-04T19:52:19.715Z,101617.41
2023-10-04T19:54:47.186Z,101619.13
2023-10-04T19:57:14.350Z,101616.44
2023-10-04T19:59:43.663Z,101619.81
2023-10-04T20:02:11.745Z,101613.28
2023-10-04T20:04:41.620Z,101616.72
2023-10-04T20:07:11.298Z,101619.56
2023-10-04T20:09:41.993Z,101617.66
2023-10-04T20:12:10.689Z,101612.59
2023-10-04T20:14:38.647Z,101615.00
2023-10-04T20:17:07.798Z,101617.88
2023-10-04T20:19:35.741Z,101621.72
2023-10-04T20:22:04.935Z,101629.34
2023-10-04T20:24:35.747Z,101628.47
2023-10-04T20:27:02.969Z,101625.34
2023-10-04T20:29:31.492Z,101630.50
2023-10-04T20:31:59.354Z,101636.03
2023-10-04T20:34:31.408Z,101626.56
2023-10-04T20:37:01.107Z,101627.03
2023-10-04T20:39:29.681Z,101633.78
2023-10-04T20:41:59.712Z,101630.88
2023-10-04T20:44:27.881Z,101629.06
2023-10-04T20:46:55.221Z,101623.88
2023-10-04T20:49:23.381Z,101625.59
2023-10-04T20:51:53.311Z,101622.00
2023-10-04T20:54:20.649Z,101635.25
2023-10-04T20:56:47.962Z,101626.56
2023-10-04T20:59:15.627Z,101635.59
2023-10-04T21:01:42.864Z,101637.88
2023-10-04T21:04:11.123Z,101636.41
2023-10-04T21:06:38.593Z,101636.66
2023-10-04T21:09:05.911Z,101633.03
2023-10-04T21:11:33.036Z,101636.88
2023-10-04T21:14:00.265Z,101637.72
2023-10-04T21:16:27.471Z,101638.56
2023-10-04T21:18:54.795Z,101634.84
2023-10-04T21:21:22.355Z,101634.47
2023-10-04T21:23:52.122Z,101636.88
2023-10-04T21:26:20.532Z,101637.56
2023-10-04T21:28:48.956Z,101637.34
2023-10-04T21:31:16.428Z,101637.72
2023-10-04T21:33:45.838Z,101628.22
2023-10-04T21:36:14.472Z,101621.44
2023-10-04T21:38:52.337Z,101621.69
2023-10-04T21:41:23.187Z,101621.69
2023-10-04T21:44:05.165Z,101625.53
2023-10-04T21:46:39.437Z,101624.84
2023-10-04T21:49:08.669Z,101620.94
2023-10-04T21:51:54.173Z,101625.28
2023-10-04T21:54:25.193Z,101634.66
2023-10-04T21:56:52.556Z,101626.44
2023-10-04T21:59:19.770Z,101630.22
2023-10-04T22:01:51.753Z,101631.44
2023-10-04T22:04:19.400Z,101627.16
2023-10-04T22:06:46.891Z,101628.47
2023-10-04T22:09:20.460Z,101633.00
2023-10-04T22:11:49.776Z,101625.81
2023-10-04T22:14:18.757Z,101627.06
2023-10-04T22:16:46.019Z,101628.13
2023-10-04T22:19:16.725Z,101627.31
2023-10-04T22:21:45.591Z,101622.03
2023-10-04T22:24:12.868Z,101624.38
2023-10-04T22:26:41.742Z,101622.69
2023-10-04T22:29:21.194Z,101624.38
2023-10-04T22:31:58.331Z,101628.66
2023-10-04T22:34:25.693Z,101627.38
2023-10-04T22:36:53.040Z,101632.66
2023-10-04T22:39:20.188Z,101628.66
2023-10-04T22:41:47.471Z,101619.97
2023-10-04T22:44:17.157Z,101615.63
2023-10-04T22:46:48.861Z,101622.31
2023-10-04T22:49:16.333Z,101616.50
2023-10-04T22:51:43.499Z,101614.56
2023-10-04T22:54:10.869Z,101612.78
2023-10-04T22:56:41.313Z,101615.69
2023-10-04T22:59:13.713Z,101613.28
2023-10-04T23:01:41.494Z,101610.22
2023-10-04T23:04:09.016Z,101607.91
2023-10-04T23:06:36.619Z,101619.25
2023-10-04T23:09:12.090Z,101615.34
2023-10-04T23:11:40.118Z,101612.78
2023-10-04T23:14:07.827Z,101614.69
2023-10-04T23:16:38.323Z,101619.53
2023-10-04T23:19:12.613Z,101622.97
2023-10-04T23:21:43.656Z,101615.63
2023-10-04T23:24:15.450Z,101613.44
2023-10-04T23:26:45.088Z,101604.75
2023-10-04T23:29:14.391Z,101609.63
2023-10-04T23:31:43.608Z,101608.25
2023-10-04T23:34:11.422Z,101608.88
2023-10-04T23:36:42.245Z,101607.72
2023-10-04T23:39:10.874Z,101612.88
2023-10-04T23:41:38.246Z,101618.06
2023-10-04T23:44:12.256Z,101614.56
2023-10-04T23:46:40.189Z,101614.69
2023-10-04T23:49:25.441Z,101612.03
2023-10-04T23:51:54.462Z,101608.09
2023-10-04T23:54:23.457Z,101610.16
2023-10-04T23:56:53.961Z,101612.09
2023-10-04T23:59:22.263Z,101608.28
